Time;durP1;ratioP1;P1;durP2;ratioP2;P2;SDS_P1;SDS_P2;PMS_P1;PMS_P2;Temp;Humidity;BMP_temperature;BMP_pressure;BME280_temperature;BME280_humidity;BME280_pressure;Samples;Min_cycle;Max_cycle;Signal;HPM_P1;HPM_P2
2022/08/22 00:01:25;;;;;;;;;;;512.40;2380.80;;;;;;5073513;28;20305;-56
2022/08/22 00:04:09;;;;;;;;;;;512.30;2380.80;;;;;;5073653;28;20011;-56
2022/08/22 00:06:48;;;;;;;;;;;512.20;2380.80;;;;;;5073642;28;19949;-56
2022/08/22 00:09:34;;;;;;;;;;;512.30;2380.80;;;;;;5073489;28;20441;-56
2022/08/22 00:12:08;;;;;;;;;;;512.30;2380.80;;;;;;5011564;28;19972;-54
2022/08/22 00:14:46;;;;;;;;;;;512.30;2380.80;;;;;;5011511;28;20403;-56
2022/08/22 00:17:26;;;;;;;;;;;512.40;2252.80;;;;;;5011626;28;19909;-56
2022/08/22 00:19:52;;;;;;;;;;;512.40;2380.80;;;;;;5011289;28;20364;-56
2022/08/22 00:22:23;;;;;;;;;;;512.40;2278.40;;;;;;5011657;28;19918;-56
2022/08/22 00:24:56;;;;;;;;;;;512.40;2124.80;;;;;;5011625;28;19915;-56
2022/08/22 00:27:26;;;;;;;;;;;512.40;2329.60;;;;;;5011363;28;20371;-56
2022/08/22 00:29:56;;;;;;;;;;;512.40;2380.80;;;;;;5011165;28;19913;-57
2022/08/22 00:32:25;;;;;;;;;;;512.40;2380.80;;;;;;5011325;28;19921;-56
2022/08/22 00:35:04;;;;;;;;;;;512.40;2227.20;;;;;;5011332;28;19913;-57
2022/08/22 00:37:41;;;;;;;;;;;512.40;2278.40;;;;;;5011417;28;20376;-56
2022/08/22 00:40:29;;;;;;;;;;;512.40;2380.80;;;;;;5011302;28;19945;-56
2022/08/22 00:42:55;;;;;;;;;;;512.40;2380.80;;;;;;5011176;28;19932;-56
2022/08/22 00:45:39;;;;;;;;;;;512.40;2380.80;;;;;;5011220;28;20394;-55
2022/08/22 00:48:23;;;;;;;;;;;512.40;2380.80;;;;;;5015965;28;19941;-56
2022/08/22 00:50:58;;;;;;;;;;;512.40;2380.80;;;;;;5072786;28;19915;-57
2022/08/22 00:53:38;;;;;;;;;;;512.30;2380.80;;;;;;5072137;28;19909;-57
2022/08/22 00:56:22;;;;;;;;;;;512.30;2380.80;;;;;;5072666;28;19909;-56
2022/08/22 00:58:48;;;;;;;;;;;512.30;2380.80;;;;;;5072980;28;19909;-56
2022/08/22 01:01:14;;;;;;;;;;;512.20;2380.80;;;;;;5072409;28;19939;-56
2022/08/22 01:03:45;;;;;;;;;;;512.20;2380.80;;;;;;5072712;28;19917;-56
2022/08/22 01:06:14;;;;;;;;;;;512.30;2380.80;;;;;;5072190;28;20325;-57
2022/08/22 01:08:42;;;;;;;;;;;512.20;2380.80;;;;;;5072559;28;19916;-56
2022/08/22 01:11:16;;;;;;;;;;;512.30;2380.80;;;;;;5072512;28;19908;-56
2022/08/22 01:14:01;;;;;;;;;;;512.30;2380.80;;;;;;5072389;28;19908;-56
2022/08/22 01:16:33;;;;;;;;;;;512.30;2380.80;;;;;;5072531;28;19916;-56
2022/08/22 01:19:17;;;;;;;;;;;512.30;2380.80;;;;;;5072440;28;19916;-56
2022/08/22 01:21:53;;;;;;;;;;;512.30;2380.80;;;;;;5072033;28;19917;-56
2022/08/22 01:24:19;;;;;;;;;;;512.30;2380.80;;;;;;5072334;28;19977;-57
2022/08/22 01:27:07;;;;;;;;;;;512.30;2380.80;;;;;;5072113;28;19974;-56
2022/08/22 01:29:59;;;;;;;;;;;512.20;2380.80;;;;;;5010278;28;20368;-56
2022/08/22 01:32:43;;;;;;;;;;;512.30;2380.80;;;;;;5010311;28;19914;-56
2022/08/22 01:35:23;;;;;;;;;;;512.40;2380.80;;;;;;5010413;28;19910;-56
2022/08/22 01:38:04;;;;;;;;;;;512.50;2278.40;;;;;;5010233;28;20005;-56
2022/08/22 01:40:48;;;;;;;;;;;512.50;2380.80;;;;;;5010097;28;19967;-56
2022/08/22 01:43:24;;;;;;;;;;;512.50;2380.80;;;;;;5010052;28;19932;-56
2022/08/22 01:45:50;;;;;;;;;;;512.50;2380.80;;;;;;5010123;28;20000;-56
2022/08/22 01:48:18;;;;;;;;;;;512.50;2380.80;;;;;;5009779;28;19988;-56
2022/08/22 01:50:44;;;;;;;;;;;512.40;2380.80;;;;;;5009861;28;19910;-57
2022/08/22 01:53:38;;;;;;;;;;;512.40;2304.00;;;;;;5010082;28;19909;-56
2022/08/22 01:56:17;;;;;;;;;;;512.40;2380.80;;;;;;5009643;28;19909;-56
2022/08/22 01:58:44;;;;;;;;;;;512.40;2329.60;;;;;;5009764;28;19909;-56
2022/08/22 02:01:09;;;;;;;;;;;512.30;2380.80;;;;;;5009659;28;19928;-56
2022/08/22 02:03:51;;;;;;;;;;;512.40;2380.80;;;;;;5009380;28;19914;-56
2022/08/22 02:06:21;;;;;;;;;;;512.40;2380.80;;;;;;5033581;28;20011;-56
2022/08/22 02:08:47;;;;;;;;;;;512.40;2380.80;;;;;;5071437;28;19916;-56
2022/08/22 02:11:33;;;;;;;;;;;512.40;2355.20;;;;;;5071282;28;19912;-56
2022/08/22 02:13:58;;;;;;;;;;;512.40;2380.80;;;;;;5009529;28;20023;-56
2022/08/22 02:16:30;;;;;;;;;;;512.40;2380.80;;;;;;5009469;28;20339;-56
2022/08/22 02:19:02;;;;;;;;;;;512.50;2380.80;;;;;;5009512;28;20049;-56
2022/08/22 02:21:39;;;;;;;;;;;512.40;2380.80;;;;;;5009512;28;20350;-56
2022/08/22 02:24:15;;;;;;;;;;;512.40;2380.80;;;;;;5009371;28;20446;-55
2022/08/22 02:26:42;;;;;;;;;;;512.40;2380.80;;;;;;5009531;28;20378;-57
2022/08/22 02:29:19;;;;;;;;;;;512.40;2380.80;;;;;;5009411;28;19909;-56
2022/08/22 02:31:51;;;;;;;;;;;512.30;2380.80;;;;;;5009129;28;19913;-53
2022/08/22 02:34:23;;;;;;;;;;;512.40;2380.80;;;;;;5009400;28;20012;-56
2022/08/22 02:36:52;;;;;;;;;;;512.30;2380.80;;;;;;5009322;28;19917;-55
2022/08/22 02:39:22;;;;;;;;;;;512.40;2227.20;;;;;;5009280;28;20336;-56
2022/08/22 02:41:56;;;;;;;;;;;512.40;2176.00;;;;;;5009194;28;19980;-55
2022/08/22 02:44:33;;;;;;;;;;;512.40;2380.80;;;;;;5009137;28;19920;-57
2022/08/22 02:47:05;;;;;;;;;;;512.30;2380.80;;;;;;5009208;28;19909;-56
2022/08/22 02:49:31;;;;;;;;;;;512.40;2048.00;;;;;;5009084;28;19964;-57
2022/08/22 02:52:07;;;;;;;;;;;512.40;2380.80;;;;;;5062531;28;19912;-56
2022/08/22 02:54:44;;;;;;;;;;;512.40;2201.60;;;;;;5070735;28;20427;-56
2022/08/22 02:57:10;;;;;;;;;;;512.40;1996.80;;;;;;5070945;28;19916;-56
2022/08/22 02:59:37;;;;;;;;;;;512.40;2380.80;;;;;;5070519;28;19909;-56
2022/08/22 03:02:21;;;;;;;;;;;512.40;2380.80;;;;;;5070830;28;20286;-55
2022/08/22 03:04:53;;;;;;;;;;;512.40;2380.80;;;;;;5070720;28;19921;-56
2022/08/22 03:07:18;;;;;;;;;;;512.40;2380.80;;;;;;5070810;28;19915;-56
2022/08/22 03:09:56;;;;;;;;;;;512.30;2380.80;;;;;;5070520;28;19912;-56
2022/08/22 03:12:30;;;;;;;;;;;512.40;2124.80;;;;;;5070381;28;20278;-56
2022/08/22 03:15:00;;;;;;;;;;;512.40;2048.00;;;;;;5071655;28;20332;-56
2022/08/22 03:17:29;;;;;;;;;;;512.40;2380.80;;;;;;5074484;28;19908;-56
2022/08/22 03:20:01;;;;;;;;;;;512.40;2329.60;;;;;;5074594;28;19985;-56
2022/08/22 03:22:40;;;;;;;;;;;512.20;2380.80;;;;;;5074679;28;19912;-56
2022/08/22 03:25:06;;;;;;;;;;;512.20;2380.80;;;;;;5074325;28;20283;-56
2022/08/22 03:27:40;;;;;;;;;;;512.30;2380.80;;;;;;5074525;28;19912;-56
2022/08/22 03:30:06;;;;;;;;;;;512.30;2201.60;;;;;;5074238;28;19913;-56
2022/08/22 03:32:50;;;;;;;;;;;512.30;2380.80;;;;;;5074230;28;20457;-57
2022/08/22 03:35:25;;;;;;;;;;;512.30;2380.80;;;;;;5074265;28;19908;-56
2022/08/22 03:38:02;;;;;;;;;;;512.20;2380.80;;;;;;5074375;28;19913;-56
2022/08/22 03:40:31;;;;;;;;;;;512.20;2380.80;;;;;;5074287;28;19969;-56
2022/08/22 03:42:57;;;;;;;;;;;512.20;2380.80;;;;;;5074471;28;19961;-56
2022/08/22 03:45:47;;;;;;;;;;;512.20;2380.80;;;;;;5074158;28;19912;-57
2022/08/22 03:48:33;;;;;;;;;;;512.20;2380.80;;;;;;5074340;28;19961;-57
2022/08/22 03:51:18;;;;;;;;;;;512.10;2355.20;;;;;;5074122;28;19952;-57
2022/08/22 03:53:53;;;;;;;;;;;512.20;2380.80;;;;;;5073465;28;20390;-57
2022/08/22 03:56:43;;;;;;;;;;;512.20;2380.80;;;;;;5073932;28;19931;-56
2022/08/22 03:59:15;;;;;;;;;;;512.10;2380.80;;;;;;5074174;28;19954;-56
2022/08/22 04:01:46;;;;;;;;;;;512.20;2380.80;;;;;;5073770;28;19920;-56
2022/08/22 04:04:22;;;;;;;;;;;512.20;2380.80;;;;;;5073606;28;19916;-56
2022/08/22 04:06:51;;;;;;;;;;;512.00;2380.80;;;;;;5073889;28;19909;-56
2022/08/22 04:09:35;;;;;;;;;;;512.00;2380.80;;;;;;5073963;28;19908;-57
2022/08/22 04:12:07;;;;;;;;;;;512.00;2380.80;;;;;;5074010;28;20370;-56
2022/08/22 04:14:44;;;;;;;;;;;487.30;2380.80;;;;;;5073358;28;19909;-56
2022/08/22 04:17:24;;;;;;;;;;;487.30;2022.40;;;;;;5073571;28;19909;-56
2022/08/22 04:20:02;;;;;;;;;;;487.30;2073.60;;;;;;5073811;28;19919;-55
2022/08/22 04:22:32;;;;;;;;;;;487.30;2380.80;;;;;;5073574;28;19920;-57
2022/08/22 04:25:04;;;;;;;;;;;487.30;2380.80;;;;;;5073623;28;19913;-56
2022/08/22 04:27:32;;;;;;;;;;;487.30;2380.80;;;;;;5073242;28;19908;-56
2022/08/22 04:30:01;;;;;;;;;;;487.30;2380.80;;;;;;5073231;28;20347;-56
2022/08/22 04:32:45;;;;;;;;;;;487.30;2099.20;;;;;;5073365;28;19917;-56
2022/08/22 04:35:16;;;;;;;;;;;487.20;2380.80;;;;;;5073516;28;19999;-56
2022/08/22 04:37:55;;;;;;;;;;;487.20;2380.80;;;;;;5073112;28;20003;-56
2022/08/22 04:40:27;;;;;;;;;;;487.20;2380.80;;;;;;5073023;28;19916;-55
2022/08/22 04:42:56;;;;;;;;;;;487.20;2380.80;;;;;;5072989;28;20003;-57
2022/08/22 04:45:24;;;;;;;;;;;487.10;2278.40;;;;;;5073038;28;19920;-57
2022/08/22 04:48:09;;;;;;;;;;;487.10;2150.40;;;;;;5073167;28;19916;-56
2022/08/22 04:50:35;;;;;;;;;;;487.20;2380.80;;;;;;5072837;28;20355;-56
2022/08/22 04:53:07;;;;;;;;;;;487.10;2380.80;;;;;;5072791;28;19923;-56
2022/08/22 04:55:36;;;;;;;;;;;487.20;2380.80;;;;;;5072684;28;19909;-56
2022/08/22 04:58:08;;;;;;;;;;;487.20;2380.80;;;;;;5072677;28;19920;-56
2022/08/22 05:00:40;;;;;;;;;;;487.20;2380.80;;;;;;5072500;28;19917;-55
2022/08/22 05:03:08;;;;;;;;;;;487.20;2380.80;;;;;;5072556;28;19917;-56
2022/08/22 05:05:36;;;;;;;;;;;487.30;2380.80;;;;;;5072264;28;20297;-56
2022/08/22 05:08:05;;;;;;;;;;;487.30;2380.80;;;;;;5072724;28;19931;-56
2022/08/22 05:10:34;;;;;;;;;;;512.00;2380.80;;;;;;5072384;28;19908;-56
2022/08/22 05:13:08;;;;;;;;;;;512.00;2380.80;;;;;;5072598;28;19913;-56
2022/08/22 05:15:39;;;;;;;;;;;512.10;2380.80;;;;;;5072319;28;20375;-56
2022/08/22 05:18:11;;;;;;;;;;;512.10;2380.80;;;;;;5072224;28;20259;-56
2022/08/22 05:20:38;;;;;;;;;;;512.10;2380.80;;;;;;5071967;28;19920;-55
2022/08/22 05:23:10;;;;;;;;;;;512.10;2380.80;;;;;;5072171;28;19908;-56
2022/08/22 05:25:36;;;;;;;;;;;512.10;2380.80;;;;;;5072007;28;19999;-55
2022/08/22 05:28:21;;;;;;;;;;;512.20;2380.80;;;;;;5071988;28;19908;-56
2022/08/22 05:30:47;;;;;;;;;;;512.20;2380.80;;;;;;5072091;28;19960;-56
2022/08/22 05:33:28;;;;;;;;;;;512.30;2380.80;;;;;;5071951;28;20389;-56
2022/08/22 05:36:02;;;;;;;;;;;512.40;2380.80;;;;;;5071975;28;19908;-56
2022/08/22 05:38:33;;;;;;;;;;;512.40;2380.80;;;;;;5071479;28;19962;-56
2022/08/22 05:41:06;;;;;;;;;;;512.50;2380.80;;;;;;5072127;28;19970;-56
2022/08/22 05:43:35;;;;;;;;;;;512.60;2380.80;;;;;;5071752;28;20269;-56
2022/08/22 05:46:02;;;;;;;;;;;512.80;2380.80;;;;;;5072278;28;19908;-56
2022/08/22 05:48:36;;;;;;;;;;;512.90;2380.80;;;;;;5072106;28;19913;-56
2022/08/22 05:51:07;;;;;;;;;;;512.90;2380.80;;;;;;5071817;28;19938;-56
2022/08/22 05:53:40;;;;;;;;;;;537.70;2406.40;;;;;;5071749;28;19915;-56
2022/08/22 05:56:09;;;;;;;;;;;537.90;2406.40;;;;;;5071511;28;19908;-56
2022/08/22 05:58:38;;;;;;;;;;;538.00;2406.40;;;;;;5071581;28;19915;-56
2022/08/22 06:01:03;;;;;;;;;;;538.10;2406.40;;;;;;5071126;28;20382;-55
2022/08/22 06:03:32;;;;;;;;;;;538.40;2406.40;;;;;;5071625;28;19913;-56
2022/08/22 06:06:00;;;;;;;;;;;538.40;2406.40;;;;;;5071652;28;19920;-55
2022/08/22 06:08:30;;;;;;;;;;;538.40;2406.40;;;;;;5071246;28;19912;-56
2022/08/22 06:10:58;;;;;;;;;;;538.40;2406.40;;;;;;5071174;28;19916;-56
2022/08/22 06:13:31;;;;;;;;;;;538.50;2406.40;;;;;;5071159;28;19995;-56
2022/08/22 06:16:00;;;;;;;;;;;563.20;2432.00;;;;;;5071140;28;19961;-56
2022/08/22 06:18:26;;;;;;;;;;;563.30;2432.00;;;;;;5071180;28;19916;-57
2022/08/22 06:20:57;;;;;;;;;;;563.50;2432.00;;;;;;5071064;28;20015;-56
2022/08/22 06:23:25;;;;;;;;;;;563.80;2432.00;;;;;;5071244;28;19909;-57
2022/08/22 06:25:52;;;;;;;;;;;588.90;2432.00;;;;;;5071361;28;20370;-56
2022/08/22 06:28:21;;;;;;;;;;;589.00;2432.00;;;;;;5071346;28;19908;-56
2022/08/22 06:30:48;;;;;;;;;;;589.10;2432.00;;;;;;5071305;28;20345;-56
2022/08/22 06:33:16;;;;;;;;;;;589.10;2432.00;;;;;;5070738;28;20007;-54
2022/08/22 06:38:33;;;;;;;;;;;589.10;2432.00;;;;;;5068111;28;19973;-56
2022/08/22 06:41:05;;;;;;;;;;;589.10;2432.00;;;;;;5070152;28;20030;-55
2022/08/22 06:43:38;;;;;;;;;;;589.10;2432.00;;;;;;5070549;28;19913;-56
2022/08/22 06:46:04;;;;;;;;;;;589.20;2432.00;;;;;;5070432;28;19962;-57
2022/08/22 06:48:30;;;;;;;;;;;589.40;2432.00;;;;;;5070259;28;19999;-56
2022/08/22 06:50:57;;;;;;;;;;;589.30;2432.00;;;;;;5069566;28;20003;-55
2022/08/22 06:53:22;;;;;;;;;;;589.10;2432.00;;;;;;5070946;28;19962;-56
2022/08/22 06:55:51;;;;;;;;;;;589.10;2432.00;;;;;;5070945;28;19909;-56
2022/08/22 06:58:21;;;;;;;;;;;588.90;2432.00;;;;;;5071077;28;19908;-56
2022/08/22 07:00:52;;;;;;;;;;;588.90;2432.00;;;;;;5070874;28;20011;-56
2022/08/22 07:03:31;;;;;;;;;;;588.90;2432.00;;;;;;5070826;28;19913;-56
2022/08/22 07:05:58;;;;;;;;;;;588.80;2432.00;;;;;;5070823;28;20355;-55
2022/08/22 07:08:25;;;;;;;;;;;588.80;2432.00;;;;;;5070570;28;19948;-56
2022/08/22 07:11:04;;;;;;;;;;;589.00;2432.00;;;;;;5070751;28;19915;-55
2022/08/22 07:13:30;;;;;;;;;;;589.00;2432.00;;;;;;5070822;28;19962;-56
2022/08/22 07:15:58;;;;;;;;;;;589.10;2432.00;;;;;;5070557;28;20003;-56
2022/08/22 07:18:25;;;;;;;;;;;589.20;2432.00;;;;;;5070474;28;19908;-56
2022/08/22 07:20:53;;;;;;;;;;;589.50;2432.00;;;;;;5070643;28;20122;-57
2022/08/22 07:23:33;;;;;;;;;;;589.60;2432.00;;;;;;5071025;28;19961;-56
2022/08/22 07:26:15;;;;;;;;;;;589.60;2432.00;;;;;;5070733;28;20004;-56
2022/08/22 07:28:47;;;;;;;;;;;589.70;2432.00;;;;;;5068999;28;19908;-56
2022/08/22 07:31:12;;;;;;;;;;;589.70;2432.00;;;;;;5068281;28;19923;-57
2022/08/22 07:33:42;;;;;;;;;;;614.50;2432.00;;;;;;5068576;28;20284;-55
2022/08/22 07:36:31;;;;;;;;;;;614.80;2432.00;;;;;;5068711;28;20003;-55
2022/08/22 07:39:12;;;;;;;;;;;615.10;2432.00;;;;;;5062506;28;19908;-56
2022/08/22 07:41:45;;;;;;;;;;;640.00;2432.00;;;;;;5067929;28;20009;-54
2022/08/22 07:44:16;;;;;;;;;;;640.10;2432.00;;;;;;5069856;28;19930;-55
2022/08/22 07:46:48;;;;;;;;;;;640.10;2432.00;;;;;;5070138;28;20349;-56
2022/08/22 07:49:16;;;;;;;;;;;640.40;2432.00;;;;;;5070294;28;19909;-54
2022/08/22 07:51:44;;;;;;;;;;;692.10;2432.00;;;;;;5070128;28;19912;-56
2022/08/22 07:54:14;;;;;;;;;;;768.60;2201.60;;;;;;5070658;28;19908;-56
2022/08/22 07:56:45;;;;;;;;;;;793.90;2048.00;;;;;;5070577;28;20064;-56
2022/08/22 07:59:16;;;;;;;;;;;794.00;2048.00;;;;;;5070392;28;20312;-56
2022/08/22 08:01:44;;;;;;;;;;;793.90;2022.40;;;;;;5071645;28;20382;-56
2022/08/22 08:04:11;;;;;;;;;;;768.10;2048.00;;;;;;5073645;28;19913;-56
2022/08/22 08:06:38;;;;;;;;;;;742.60;2099.20;;;;;;5074031;28;20002;-56
2022/08/22 08:09:04;;;;;;;;;;;717.00;2278.40;;;;;;5073677;28;19962;-56
2022/08/22 08:11:33;;;;;;;;;;;692.10;2329.60;;;;;;5073620;28;20305;-56
2022/08/22 08:14:00;;;;;;;;;;;691.70;2432.00;;;;;;5073508;28;19908;-56
2022/08/22 08:16:27;;;;;;;;;;;691.30;2432.00;;;;;;5073328;28;19954;-56
2022/08/22 08:18:55;;;;;;;;;;;666.20;2432.00;;;;;;5073322;28;19913;-55
2022/08/22 08:21:24;;;;;;;;;;;665.70;2432.00;;;;;;5073673;28;19970;-56
2022/08/22 08:23:50;;;;;;;;;;;640.70;2432.00;;;;;;5073541;28;19908;-56
2022/08/22 08:26:18;;;;;;;;;;;640.40;2432.00;;;;;;5073269;28;19915;-56
2022/08/22 08:28:46;;;;;;;;;;;640.50;2432.00;;;;;;5073301;28;19908;-56
2022/08/22 08:31:20;;;;;;;;;;;640.20;2432.00;;;;;;5073715;28;19955;-56
2022/08/22 08:33:47;;;;;;;;;;;640.00;2432.00;;;;;;5073108;28;19913;-56
2022/08/22 08:36:31;;;;;;;;;;;615.20;2432.00;;;;;;5073054;28;19948;-56
2022/08/22 08:38:57;;;;;;;;;;;615.00;2432.00;;;;;;5073213;28;20281;-56
2022/08/22 08:41:31;;;;;;;;;;;614.80;2432.00;;;;;;5072839;28;19916;-56
2022/08/22 08:44:17;;;;;;;;;;;614.80;2432.00;;;;;;5073031;28;19954;-56
2022/08/22 08:46:58;;;;;;;;;;;614.80;2432.00;;;;;;5072544;28;19908;-56
2022/08/22 08:49:39;;;;;;;;;;;614.90;2432.00;;;;;;5072820;28;19955;-56
2022/08/22 08:52:10;;;;;;;;;;;614.80;2432.00;;;;;;5072725;28;19908;-56
2022/08/22 08:54:53;;;;;;;;;;;614.80;2432.00;;;;;;5072751;28;19969;-55
2022/08/22 08:57:28;;;;;;;;;;;614.80;2432.00;;;;;;5072883;28;19978;-55
2022/08/22 09:00:10;;;;;;;;;;;614.90;2432.00;;;;;;5072343;28;20381;-55
2022/08/22 09:02:45;;;;;;;;;;;615.00;2432.00;;;;;;5072503;28;19992;-56
2022/08/22 09:05:18;;;;;;;;;;;615.00;2432.00;;;;;;5072417;28;20015;-55
2022/08/22 09:07:53;;;;;;;;;;;615.00;2432.00;;;;;;5072647;28;19909;-56
2022/08/22 09:10:45;;;;;;;;;;;615.00;2432.00;;;;;;5072474;28;19908;-56
2022/08/22 09:13:29;;;;;;;;;;;615.10;2432.00;;;;;;5055339;28;19908;-56
2022/08/22 09:16:07;;;;;;;;;;;615.20;2432.00;;;;;;5072501;28;19909;-56
2022/08/22 09:18:59;;;;;;;;;;;640.00;2432.00;;;;;;5072220;28;19961;-56
2022/08/22 09:21:36;;;;;;;;;;;640.00;2432.00;;;;;;5055879;28;19923;-56
2022/08/22 09:24:10;;;;;;;;;;;640.10;2432.00;;;;;;5072015;28;19935;-56
2022/08/22 09:26:39;;;;;;;;;;;640.30;2432.00;;;;;;5071910;28;19948;-56
2022/08/22 09:29:13;;;;;;;;;;;640.40;2432.00;;;;;;5072179;28;20308;-56
2022/08/22 09:32:02;;;;;;;;;;;640.60;2432.00;;;;;;5072137;28;19919;-56
2022/08/22 09:34:31;;;;;;;;;;;640.50;2432.00;;;;;;5071853;28;19916;-56
2022/08/22 09:37:15;;;;;;;;;;;640.50;2432.00;;;;;;5072006;28;19916;-56
2022/08/22 09:39:58;;;;;;;;;;;640.50;2432.00;;;;;;5072079;28;19915;-56
2022/08/22 09:42:27;;;;;;;;;;;640.60;2432.00;;;;;;5071762;28;20290;-56
2022/08/22 09:45:15;;;;;;;;;;;640.20;2432.00;;;;;;5071388;28;20428;-55
2022/08/22 09:47:50;;;;;;;;;;;640.20;2432.00;;;;;;5071635;28;19962;-56
2022/08/22 09:50:31;;;;;;;;;;;640.20;2432.00;;;;;;5071484;28;19909;-56
2022/08/22 09:52:56;;;;;;;;;;;640.40;2432.00;;;;;;5071336;28;19915;-56
2022/08/22 09:55:28;;;;;;;;;;;640.40;2432.00;;;;;;5071389;28;19909;-57
2022/08/22 09:58:01;;;;;;;;;;;640.30;2432.00;;;;;;5071338;28;19913;-56
2022/08/22 10:00:34;;;;;;;;;;;640.20;2432.00;;;;;;5071283;28;20362;-56
2022/08/22 10:03:11;;;;;;;;;;;640.20;2432.00;;;;;;5071593;28;19913;-56
2022/08/22 10:05:42;;;;;;;;;;;640.50;2432.00;;;;;;5071495;28;19927;-56
2022/08/22 10:08:11;;;;;;;;;;;640.70;2432.00;;;;;;5071501;28;19951;-56
2022/08/22 10:10:49;;;;;;;;;;;665.60;2432.00;;;;;;5071681;28;19909;-56
2022/08/22 10:13:24;;;;;;;;;;;665.80;2432.00;;;;;;5071216;28;20016;-56
2022/08/22 10:16:00;;;;;;;;;;;666.20;2432.00;;;;;;5071521;28;19993;-56
2022/08/22 10:18:29;;;;;;;;;;;691.20;2432.00;;;;;;5068115;28;19909;-55
2022/08/22 10:20:54;;;;;;;;;;;691.40;2432.00;;;;;;5069277;28;19924;-56
2022/08/22 10:23:25;;;;;;;;;;;691.60;2380.80;;;;;;5069528;28;20278;-55
2022/08/22 10:26:00;;;;;;;;;;;691.70;2380.80;;;;;;5069237;28;19912;-56
2022/08/22 10:28:44;;;;;;;;;;;691.30;2329.60;;;;;;5069005;28;19915;-55
2022/08/22 10:31:28;;;;;;;;;;;691.80;2329.60;;;;;;5068513;28;19912;-56
2022/08/22 10:33:53;;;;;;;;;;;691.90;2329.60;;;;;;5068916;28;19919;-56
2022/08/22 10:36:26;;;;;;;;;;;692.10;2304.00;;;;;;5069027;28;19909;-55
2022/08/22 10:38:53;;;;;;;;;;;716.80;2278.40;;;;;;5069084;28;20279;-55
2022/08/22 10:41:24;;;;;;;;;;;692.00;2227.20;;;;;;5069017;28;19920;-54
2022/08/22 10:43:50;;;;;;;;;;;692.10;2201.60;;;;;;5068306;28;19953;-55
2022/08/22 10:46:37;;;;;;;;;;;691.90;2252.80;;;;;;5068690;28;19999;-55
2022/08/22 10:49:07;;;;;;;;;;;692.00;2176.00;;;;;;5068578;28;19955;-55
2022/08/22 10:51:42;;;;;;;;;;;691.70;2227.20;;;;;;5068597;28;19912;-56
2022/08/22 10:54:14;;;;;;;;;;;691.60;2252.80;;;;;;5068479;28;19909;-55
2022/08/22 10:56:39;;;;;;;;;;;691.60;2304.00;;;;;;5068572;28;19916;-55
2022/08/22 10:59:11;;;;;;;;;;;691.60;2252.80;;;;;;5068570;28;19909;-55
2022/08/22 11:01:48;;;;;;;;;;;691.60;2278.40;;;;;;5068513;28;19921;-55
2022/08/22 11:04:20;;;;;;;;;;;691.90;2227.20;;;;;;5068645;28;19920;-56
2022/08/22 11:07:06;;;;;;;;;;;716.90;2150.40;;;;;;5068464;28;19908;-56
2022/08/22 11:09:45;;;;;;;;;;;716.90;2150.40;;;;;;5026003;28;19967;-56
2022/08/22 11:12:14;;;;;;;;;;;717.00;2201.60;;;;;;5025983;28;19909;-55
2022/08/22 11:14:45;;;;;;;;;;;717.10;2150.40;;;;;;5026309;28;19920;-55
2022/08/22 11:17:29;;;;;;;;;;;717.10;2099.20;;;;;;5026243;28;19910;-56
2022/08/22 11:19:54;;;;;;;;;;;692.10;2124.80;;;;;;5025809;28;19963;-55
2022/08/22 11:22:32;;;;;;;;;;;691.70;2201.60;;;;;;5025843;28;19916;-55
2022/08/22 11:24:57;;;;;;;;;;;691.60;2201.60;;;;;;5026086;28;19948;-55
2022/08/22 11:27:34;;;;;;;;;;;691.50;2252.80;;;;;;5025934;28;19953;-56
2022/08/22 11:30:09;;;;;;;;;;;666.50;2278.40;;;;;;5026012;28;19917;-55
2022/08/22 11:32:35;;;;;;;;;;;666.50;2304.00;;;;;;5025847;28;19917;-55
2022/08/22 11:35:14;;;;;;;;;;;666.30;2329.60;;;;;;5026116;28;19936;-55
2022/08/22 11:37:54;;;;;;;;;;;691.20;2329.60;;;;;;5029229;28;19967;-56
2022/08/22 11:40:34;;;;;;;;;;;666.40;2355.20;;;;;;5029682;28;20364;-56
2022/08/22 11:43:06;;;;;;;;;;;666.30;2380.80;;;;;;5027235;28;20272;-55
2022/08/22 11:45:36;;;;;;;;;;;666.00;2329.60;;;;;;5029554;28;20361;-56
2022/08/22 11:48:25;;;;;;;;;;;666.20;2406.40;;;;;;5071733;28;19923;-55
2022/08/22 11:51:03;;;;;;;;;;;666.20;2432.00;;;;;;5066113;28;19912;-54
2022/08/22 11:53:37;;;;;;;;;;;666.50;2380.80;;;;;;5072069;28;19920;-54
2022/08/22 11:56:17;;;;;;;;;;;666.50;2304.00;;;;;;5071903;28;19966;-55
2022/08/22 11:58:49;;;;;;;;;;;666.50;2304.00;;;;;;5071364;28;20274;-55
2022/08/22 12:01:20;;;;;;;;;;;666.50;2304.00;;;;;;5071466;28;20355;-54
2022/08/22 12:04:06;;;;;;;;;;;666.20;2329.60;;;;;;5071773;28;19912;-54
2022/08/22 12:06:38;;;;;;;;;;;666.20;2406.40;;;;;;5064080;28;19928;-55
2022/08/22 12:09:19;;;;;;;;;;;665.90;2432.00;;;;;;5071572;28;19909;-55
2022/08/22 12:12:08;;;;;;;;;;;665.90;2432.00;;;;;;5070578;28;20362;-55
2022/08/22 12:14:39;;;;;;;;;;;665.80;2432.00;;;;;;5029007;28;20395;-54
2022/08/22 12:17:08;;;;;;;;;;;640.80;2432.00;;;;;;5028834;28;19912;-55
2022/08/22 12:19:41;;;;;;;;;;;640.50;2432.00;;;;;;5028950;28;19909;-55
2022/08/22 12:22:16;;;;;;;;;;;640.00;2432.00;;;;;;5029009;28;20383;-55
2022/08/22 12:25:00;;;;;;;;;;;615.20;2432.00;;;;;;5028458;28;19913;-56
2022/08/22 12:27:44;;;;;;;;;;;640.10;2432.00;;;;;;5028775;28;20321;-53
2022/08/22 12:30:28;;;;;;;;;;;615.30;2432.00;;;;;;5028826;28;19914;-54
2022/08/22 12:33:09;;;;;;;;;;;615.10;2432.00;;;;;;5028651;28;19917;-55
2022/08/22 12:35:35;;;;;;;;;;;615.10;2432.00;;;;;;5028679;28;19999;-55
2022/08/22 12:38:00;;;;;;;;;;;614.90;2432.00;;;;;;5028382;28;20426;-54
2022/08/22 12:40:32;;;;;;;;;;;615.00;2432.00;;;;;;5028571;28;20011;-56
2022/08/22 12:43:18;;;;;;;;;;;614.80;2432.00;;;;;;5028788;28;20360;-53
2022/08/22 12:45:52;;;;;;;;;;;615.10;2432.00;;;;;;4950227;29;20258;-54
2022/08/22 12:48:24;;;;;;;;;;;615.00;2432.00;;;;;;4950597;28;19949;-53
2022/08/22 12:50:52;;;;;;;;;;;615.10;2432.00;;;;;;4957600;28;20004;-55
2022/08/22 12:53:54;;;;;;;;;;;615.10;2432.00;;;;;;4989235;28;19910;-55
2022/08/22 12:56:28;;;;;;;;;;;614.90;2432.00;;;;;;4950127;28;19910;-54
2022/08/22 12:59:12;;;;;;;;;;;615.00;2432.00;;;;;;4950114;29;19915;-55
2022/08/22 13:01:43;;;;;;;;;;;615.00;2432.00;;;;;;4950170;29;19918;-56
2022/08/22 13:04:14;;;;;;;;;;;614.70;2432.00;;;;;;4949392;29;20277;-56
2022/08/22 13:06:39;;;;;;;;;;;614.80;2432.00;;;;;;4950239;29;19910;-56
2022/08/22 13:09:22;;;;;;;;;;;614.80;2432.00;;;;;;4949760;29;19918;-56
2022/08/22 13:11:50;;;;;;;;;;;614.70;2432.00;;;;;;4949933;29;19911;-55
2022/08/22 13:14:19;;;;;;;;;;;614.70;2432.00;;;;;;4949765;29;19953;-56
2022/08/22 13:16:48;;;;;;;;;;;614.60;2432.00;;;;;;4949399;29;19961;-56
2022/08/22 13:19:22;;;;;;;;;;;614.40;2432.00;;;;;;4949739;29;19914;-55
2022/08/22 13:21:52;;;;;;;;;;;589.70;2432.00;;;;;;4955320;28;19919;-56
2022/08/22 13:24:24;;;;;;;;;;;589.70;2432.00;;;;;;5027926;28;20001;-56
2022/08/22 13:26:53;;;;;;;;;;;614.40;2432.00;;;;;;5029969;28;19913;-56
2022/08/22 13:29:34;;;;;;;;;;;614.50;2432.00;;;;;;5034154;28;19909;-56
2022/08/22 13:32:01;;;;;;;;;;;614.80;2432.00;;;;;;5072441;28;19923;-55
2022/08/22 13:34:30;;;;;;;;;;;614.80;2432.00;;;;;;5072222;28;19954;-55
2022/08/22 13:36:59;;;;;;;;;;;615.10;2432.00;;;;;;5072131;28;19963;-56
2022/08/22 13:39:29;;;;;;;;;;;615.30;2432.00;;;;;;5072065;28;19908;-56
2022/08/22 13:41:55;;;;;;;;;;;640.00;2432.00;;;;;;5071728;28;19955;-56
2022/08/22 13:44:23;;;;;;;;;;;640.20;2432.00;;;;;;5072116;28;20323;-56
2022/08/22 13:46:49;;;;;;;;;;;640.40;2432.00;;;;;;5071989;28;19915;-56
2022/08/22 13:49:30;;;;;;;;;;;640.40;2432.00;;;;;;5071675;28;19916;-56
2022/08/22 13:52:07;;;;;;;;;;;640.60;2432.00;;;;;;5071713;28;20322;-56
2022/08/22 13:54:42;;;;;;;;;;;640.50;2432.00;;;;;;5071703;28;19908;-55
2022/08/22 13:57:26;;;;;;;;;;;640.60;2432.00;;;;;;5071667;28;19909;-55
2022/08/22 13:59:54;;;;;;;;;;;640.60;2432.00;;;;;;5070854;28;19909;-56
2022/08/22 14:02:22;;;;;;;;;;;640.50;2432.00;;;;;;5068400;28;19924;-56
2022/08/22 14:04:50;;;;;;;;;;;640.30;2432.00;;;;;;5069588;28;20313;-56
2022/08/22 14:07:23;;;;;;;;;;;640.00;2432.00;;;;;;5069371;28;19915;-56
2022/08/22 14:09:54;;;;;;;;;;;615.00;2432.00;;;;;;5069480;28;19965;-55
2022/08/22 14:12:38;;;;;;;;;;;614.80;2432.00;;;;;;5069394;28;19916;-56
2022/08/22 14:15:06;;;;;;;;;;;614.50;2432.00;;;;;;5068868;28;19912;-55
2022/08/22 14:17:38;;;;;;;;;;;614.40;2432.00;;;;;;5069160;28;20366;-56
2022/08/22 14:20:11;;;;;;;;;;;614.50;2432.00;;;;;;5069045;28;19944;-55